Time;durP1;ratioP1;P1;durP2;ratioP2;P2;SDS_P1;SDS_P2;PMS_P1;PMS_P2;Temp;Humidity;BMP_temperature;BMP_pressure;BME280_temperature;BME280_humidity;BME280_pressure;Samples;Min_cycle;Max_cycle;Signal;HPM_P1;HPM_P2
2021/06/14 00:01:14;;;;;;;13.00;6.30;;;21.60;61.80;;;;;;5088256;28;20020;-64
2021/06/14 00:03:41;;;;;;;12.02;5.65;;;21.60;62.20;;;;;;5092766;28;20498;-63
2021/06/14 00:06:07;;;;;;;12.60;6.47;;;21.60;62.80;;;;;;5088581;28;20016;-63
2021/06/14 00:08:33;;;;;;;14.38;6.63;;;21.50;63.20;;;;;;5092145;28;20034;-63
2021/06/14 00:10:59;;;;;;;13.13;6.03;;;21.50;63.50;;;;;;5090743;28;20114;-63
2021/06/14 00:13:27;;;;;;;11.60;6.47;;;21.50;63.70;;;;;;5091708;28;20582;-64
2021/06/14 00:15:53;;;;;;;12.88;6.10;;;21.50;63.80;;;;;;5091018;28;20094;-63
2021/06/14 00:18:20;;;;;;;13.40;6.22;;;21.40;63.90;;;;;;5092911;28;20483;-63
2021/06/14 00:20:57;;;;;;;18.58;6.13;;;21.40;64.00;;;;;;5082901;28;20051;-63
2021/06/14 00:23:26;;;;;;;15.88;6.13;;;21.40;64.20;;;;;;5090963;28;20024;-63
2021/06/14 00:25:52;;;;;;;12.13;5.85;;;21.30;64.30;;;;;;5090926;28;20433;-64
2021/06/14 00:28:19;;;;;;;11.27;5.85;;;21.30;64.50;;;;;;5090834;28;20042;-64
2021/06/14 00:30:48;;;;;;;13.73;5.97;;;21.30;64.60;;;;;;5086840;28;20027;-64
2021/06/14 00:33:16;;;;;;;11.95;6.00;;;21.20;64.70;;;;;;5089312;28;20081;-63
2021/06/14 00:35:43;;;;;;;13.05;5.63;;;21.20;64.90;;;;;;5087866;28;20020;-63
2021/06/14 00:38:09;;;;;;;13.10;5.72;;;21.20;64.90;;;;;;5090858;28;20024;-64
2021/06/14 00:40:36;;;;;;;13.80;5.97;;;21.10;65.00;;;;;;5091812;28;20036;-64
2021/06/14 00:43:03;;;;;;;13.32;5.90;;;21.10;65.00;;;;;;5085598;28;20082;-63
2021/06/14 00:45:31;;;;;;;12.63;6.13;;;21.10;65.20;;;;;;5091460;28;20047;-64
2021/06/14 00:48:02;;;;;;;13.55;6.10;;;21.10;65.30;;;;;;5079617;28;20067;-63
2021/06/14 00:50:38;;;;;;;14.02;5.82;;;21.10;65.50;;;;;;5073832;28;20067;-63
2021/06/14 00:53:08;;;;;;;19.23;6.05;;;21.10;65.50;;;;;;5080969;28;20033;-64
2021/06/14 00:55:34;;;;;;;14.35;6.03;;;21.00;65.70;;;;;;5073156;28;20024;-64
2021/06/14 00:58:00;;;;;;;16.13;6.25;;;21.00;65.70;;;;;;5067677;28;20112;-64
2021/06/14 01:00:27;;;;;;;10.68;5.75;;;20.90;65.90;;;;;;5073386;28;20019;-64
2021/06/14 01:02:57;;;;;;;14.65;6.10;;;20.90;66.10;;;;;;5074111;28;20032;-64
2021/06/14 01:05:27;;;;;;;10.63;5.97;;;20.90;66.30;;;;;;5090829;28;20020;-64
2021/06/14 01:07:53;;;;;;;12.90;5.75;;;20.90;66.50;;;;;;5092457;28;20047;-63
2021/06/14 01:10:20;;;;;;;12.70;5.82;;;20.80;66.50;;;;;;5076071;28;20388;-64
2021/06/14 01:13:20;;;;;;;15.40;6.22;;;20.80;66.60;;;;;;5077425;28;20395;-64
2021/06/14 01:16:23;;;;;;;20.02;7.53;;;20.80;66.70;;;;;;5096459;28;20036;-64
2021/06/14 01:19:18;;;;;;;12.60;6.60;;;20.80;66.80;;;;;;5072038;28;20472;-63
2021/06/14 01:22:05;;;;;;;20.60;5.70;;;20.70;66.80;;;;;;5096074;28;20526;-64
2021/06/14 01:24:55;;;;;;;11.75;5.85;;;20.70;66.70;;;;;;5089842;28;20551;-64
2021/06/14 01:27:44;;;;;;;14.45;5.93;;;20.60;66.80;;;;;;5072004;28;20110;-63
2021/06/14 01:30:21;;;;;;;11.07;5.25;;;20.70;67.00;;;;;;5095239;28;20142;-64
2021/06/14 01:32:49;;;;;;;9.32;5.70;;;20.60;67.00;;;;;;5066194;28;20025;-63
2021/06/14 01:35:31;;;;;;;18.40;5.80;;;20.50;67.10;;;;;;5074976;28;20024;-63
2021/06/14 01:38:00;;;;;;;10.65;6.05;;;20.60;67.20;;;;;;5076549;28;20026;-63
2021/06/14 01:40:27;;;;;;;10.50;5.28;;;20.50;67.30;;;;;;5094588;28;20039;-64
2021/06/14 01:42:56;;;;;;;12.23;5.22;;;20.50;67.40;;;;;;5095850;28;20103;-63
2021/06/14 01:45:24;;;;;;;11.38;5.43;;;20.40;67.30;;;;;;5077153;28;20032;-63
2021/06/14 01:47:52;;;;;;;9.70;5.32;;;20.40;67.30;;;;;;5073927;28;20132;-63
2021/06/14 01:50:19;;;;;;;15.25;5.30;;;20.40;67.20;;;;;;5076974;28;20065;-64
2021/06/14 01:52:45;;;;;;;8.95;5.07;;;20.40;67.20;;;;;;5092564;28;20471;-64
2021/06/14 01:55:14;;;;;;;9.60;4.95;;;20.40;67.20;;;;;;5091462;28;20028;-63
2021/06/14 01:57:48;;;;;;;12.88;4.90;;;20.40;67.20;;;;;;5091937;28;20024;-64
2021/06/14 02:00:21;;;;;;;9.73;5.07;;;20.30;67.00;;;;;;5077337;28;20434;-63
2021/06/14 02:03:00;;;;;;;11.65;4.63;;;20.30;66.90;;;;;;5074208;28;20051;-63
2021/06/14 02:05:48;;;;;;;7.57;4.40;;;20.30;66.90;;;;;;5094693;28;20036;-63
2021/06/14 02:08:17;;;;;;;9.98;4.40;;;20.20;66.70;;;;;;5093973;28;20031;-64
2021/06/14 02:10:43;;;;;;;11.13;4.32;;;20.20;66.80;;;;;;5075139;28;20035;-64
2021/06/14 02:13:11;;;;;;;8.10;4.30;;;20.20;66.70;;;;;;5073577;28;20024;-63
2021/06/14 02:15:37;;;;;;;9.57;4.60;;;20.20;66.90;;;;;;5083863;28;20043;-63
2021/06/14 02:18:09;;;;;;;5.72;3.80;;;20.10;66.80;;;;;;5072153;28;20115;-64
2021/06/14 02:20:36;;;;;;;11.30;4.60;;;20.10;66.70;;;;;;5062342;28;20042;-63
2021/06/14 02:23:02;;;;;;;9.38;4.25;;;20.10;66.70;;;;;;5076072;28;20111;-63
2021/06/14 02:25:28;;;;;;;8.10;3.58;;;20.10;66.50;;;;;;5094563;28;20476;-63
2021/06/14 02:27:58;;;;;;;5.82;3.72;;;20.00;66.50;;;;;;5072367;28;20028;-63
2021/06/14 02:30:28;;;;;;;9.88;4.65;;;20.00;66.30;;;;;;5075451;28;20039;-63
2021/06/14 02:32:56;;;;;;;9.88;4.65;;;20.00;66.30;;;;;;5075207;28;20028;-63
2021/06/14 02:35:24;;;;;;;8.73;4.20;;;20.00;66.30;;;;;;5092766;28;20031;-63
2021/06/14 02:37:54;;;;;;;12.07;3.95;;;19.90;66.30;;;;;;5093043;28;20024;-63
2021/06/14 02:40:29;;;;;;;8.15;4.20;;;19.90;66.30;;;;;;5076024;28;20380;-64
2021/06/14 02:42:58;;;;;;;10.52;4.32;;;19.80;66.30;;;;;;5074434;28;20115;-63
2021/06/14 02:45:27;;;;;;;11.75;3.78;;;19.80;66.20;;;;;;5076567;28;20024;-63
2021/06/14 02:47:55;;;;;;;11.77;4.53;;;19.80;66.20;;;;;;5060834;28;20035;-63
2021/06/14 02:50:21;;;;;;;12.43;4.20;;;19.80;66.10;;;;;;5089262;28;20055;-63
2021/06/14 02:52:49;;;;;;;11.52;4.07;;;19.70;66.10;;;;;;5075950;28;20039;-63
2021/06/14 02:55:19;;;;;;;11.02;3.97;;;19.70;66.00;;;;;;5074697;28;20032;-63
2021/06/14 02:57:51;;;;;;;8.50;4.57;;;19.70;65.90;;;;;;5092280;28;20021;-63
2021/06/14 03:00:17;;;;;;;12.02;4.97;;;19.60;65.80;;;;;;5080510;28;20491;-63
2021/06/14 03:02:43;;;;;;;7.97;3.92;;;19.60;65.70;;;;;;5075506;28;20028;-63
2021/06/14 03:05:11;;;;;;;11.48;4.53;;;19.60;65.70;;;;;;5057264;28;20042;-63
2021/06/14 03:07:38;;;;;;;6.40;3.72;;;19.60;65.70;;;;;;5076359;28;20054;-63
2021/06/14 03:10:08;;;;;;;9.40;4.22;;;19.60;65.80;;;;;;5073994;28;20399;-63
2021/06/14 03:12:37;;;;;;;9.65;4.45;;;19.60;65.90;;;;;;5073436;28;20462;-64
2021/06/14 03:15:06;;;;;;;10.27;4.45;;;19.50;65.80;;;;;;5093635;28;20115;-64
2021/06/14 03:17:34;;;;;;;9.45;4.32;;;19.50;66.00;;;;;;5076148;28;20016;-63
2021/06/14 03:20:00;;;;;;;10.15;4.47;;;19.50;65.90;;;;;;5075476;28;20487;-63
2021/06/14 03:22:26;;;;;;;10.63;5.15;;;19.50;65.90;;;;;;5093324;28;20387;-63
2021/06/14 03:24:53;;;;;;;8.80;4.25;;;19.40;65.90;;;;;;5064612;28;20086;-63
2021/06/14 03:27:21;;;;;;;8.70;4.47;;;19.40;65.90;;;;;;5072580;28;20035;-63
2021/06/14 03:29:49;;;;;;;14.48;4.65;;;19.40;66.00;;;;;;5093639;28;20068;-63
2021/06/14 03:32:15;;;;;;;11.38;4.70;;;19.40;66.10;;;;;;5090609;28;20032;-63
2021/06/14 03:34:45;;;;;;;11.18;4.30;;;19.30;66.00;;;;;;5092840;28;20073;-63
2021/06/14 03:37:11;;;;;;;9.48;4.40;;;19.30;66.00;;;;;;5093533;28;20027;-63
2021/06/14 03:39:39;;;;;;;6.30;3.85;;;19.30;66.10;;;;;;5091330;28;20020;-63
2021/06/14 03:42:06;;;;;;;13.50;4.85;;;19.30;66.20;;;;;;5092412;28;20060;-64
2021/06/14 03:44:32;;;;;;;10.20;4.35;;;19.30;66.30;;;;;;5092681;28;20437;-63
2021/06/14 03:46:57;;;;;;;11.15;4.80;;;19.20;66.40;;;;;;5091391;28;20085;-61
2021/06/14 03:49:23;;;;;;;10.98;4.53;;;19.30;66.60;;;;;;5091262;28;20035;-63
2021/06/14 03:51:56;;;;;;;9.95;4.32;;;19.20;66.70;;;;;;5091833;28;20368;-63
2021/06/14 03:54:22;;;;;;;9.10;4.93;;;19.20;66.80;;;;;;5092281;28;20042;-63
2021/06/14 03:56:48;;;;;;;14.60;4.80;;;19.20;66.90;;;;;;5093237;28;20036;-63
2021/06/14 03:59:13;;;;;;;7.90;4.88;;;19.20;67.00;;;;;;5081401;28;20059;-63
2021/06/14 04:01:39;;;;;;;13.13;5.00;;;19.10;67.10;;;;;;5088295;28;20031;-63
2021/06/14 04:06:58;;;;;;;10.95;4.93;;;19.20;67.30;;;;;;5075559;28;20072;-63
2021/06/14 04:09:24;;;;;;;10.43;4.55;;;19.20;67.20;;;;;;5091904;28;20115;-63
2021/06/14 04:11:49;;;;;;;11.70;4.72;;;19.10;67.20;;;;;;5092054;28;21397;-63
2021/06/14 04:14:15;;;;;;;11.85;4.68;;;19.10;67.30;;;;;;5088631;28;20035;-63
2021/06/14 04:16:41;;;;;;;9.52;4.43;;;19.10;67.40;;;;;;5091530;28;20027;-63
2021/06/14 04:19:07;;;;;;;8.82;4.57;;;19.00;67.50;;;;;;5092466;28;20028;-63
2021/06/14 04:21:33;;;;;;;12.80;5.20;;;19.00;67.50;;;;;;5091359;28;20103;-63
2021/06/14 04:23:58;;;;;;;9.25;4.68;;;19.00;67.40;;;;;;5092174;28;20392;-63
2021/06/14 04:26:24;;;;;;;14.43;4.70;;;19.00;67.50;;;;;;5092037;28;20027;-63
2021/06/14 04:28:50;;;;;;;9.57;4.60;;;19.00;67.60;;;;;;5090839;28;20039;-63
2021/06/14 04:31:15;;;;;;;15.48;5.03;;;18.90;67.60;;;;;;5089261;28;20031;-63
2021/06/14 04:33:41;;;;;;;10.90;5.13;;;19.00;67.90;;;;;;5091786;28;20379;-64
2021/06/14 04:36:07;;;;;;;15.65;4.82;;;19.00;68.00;;;;;;5091309;28;20399;-63
2021/06/14 04:38:33;;;;;;;13.70;5.15;;;18.90;68.00;;;;;;5089866;28;20057;-63
2021/06/14 04:40:59;;;;;;;10.82;5.15;;;18.90;68.20;;;;;;5092580;28;20036;-63
2021/06/14 04:43:25;;;;;;;11.30;4.45;;;18.90;68.20;;;;;;5091270;28;20052;-63
2021/06/14 04:45:50;;;;;;;17.20;5.25;;;18.90;68.20;;;;;;5092299;28;20399;-63
2021/06/14 04:48:16;;;;;;;14.25;5.13;;;18.90;68.40;;;;;;5092441;28;20024;-63
2021/06/14 04:50:42;;;;;;;12.80;5.53;;;18.90;68.40;;;;;;5087877;28;20039;-63
2021/06/14 04:53:07;;;;;;;11.10;4.88;;;19.00;68.60;;;;;;5090912;28;20464;-63
2021/06/14 04:55:33;;;;;;;11.70;5.53;;;19.00;68.60;;;;;;5091078;28;20528;-63
2021/06/14 04:57:59;;;;;;;13.88;5.32;;;18.90;68.80;;;;;;5087811;28;20222;-63
2021/06/14 05:00:24;;;;;;;12.38;5.85;;;19.00;68.80;;;;;;5082146;28;20020;-63
2021/06/14 05:02:50;;;;;;;12.93;5.70;;;19.00;69.10;;;;;;5090207;28;20039;-63
2021/06/14 05:05:16;;;;;;;15.63;5.05;;;19.00;69.10;;;;;;5090591;28;20467;-63
2021/06/14 05:07:42;;;;;;;13.13;5.63;;;19.00;68.90;;;;;;5091770;28;20066;-64
2021/06/14 05:10:08;;;;;;;17.92;5.63;;;19.10;69.80;;;;;;5091532;28;20040;-62
2021/06/14 05:12:34;;;;;;;15.88;5.90;;;19.00;69.30;;;;;;5090953;28;20028;-63
2021/06/14 05:14:59;;;;;;;10.23;5.43;;;19.10;69.50;;;;;;5090008;28;20200;-63
2021/06/14 05:17:25;;;;;;;16.52;5.43;;;19.10;69.40;;;;;;5089867;28;20020;-64
2021/06/14 05:19:51;;;;;;;15.07;5.18;;;19.10;69.50;;;;;;5089894;28;20105;-63
2021/06/14 05:22:17;;;;;;;14.05;5.78;;;19.10;69.20;;;;;;5089425;28;20531;-63
2021/06/14 05:24:42;;;;;;;11.82;5.55;;;19.10;69.20;;;;;;5088398;28;20025;-63
2021/06/14 05:27:09;;;;;;;13.57;5.50;;;19.10;69.30;;;;;;5088796;28;20463;-63
2021/06/14 05:29:34;;;;;;;8.45;4.95;;;19.20;69.00;;;;;;5089641;28;20093;-63
2021/06/14 05:32:00;;;;;;;9.50;4.50;;;19.20;68.40;;;;;;5089935;28;20047;-63
2021/06/14 05:34:26;;;;;;;16.85;5.50;;;19.20;68.30;;;;;;5092060;28;20032;-63
2021/06/14 05:36:51;;;;;;;13.00;5.07;;;19.20;68.50;;;;;;5091189;28;20028;-64
2021/06/14 05:39:17;;;;;;;10.30;4.82;;;19.20;68.50;;;;;;5087773;28;20020;-63
2021/06/14 05:41:43;;;;;;;17.52;5.85;;;19.20;68.20;;;;;;5089981;28;20048;-62
2021/06/14 05:44:09;;;;;;;10.82;4.35;;;19.20;68.50;;;;;;5090107;28;20193;-62
2021/06/14 05:46:35;;;;;;;16.35;4.43;;;19.20;68.30;;;;;;5088332;28;20024;-61
2021/06/14 05:49:03;;;;;;;13.05;5.60;;;19.20;68.20;;;;;;5085544;28;20043;-61
2021/06/14 05:51:29;;;;;;;12.75;5.05;;;19.20;68.70;;;;;;5088941;28;20040;-61
2021/06/14 05:53:55;;;;;;;14.02;6.25;;;19.30;68.70;;;;;;5088166;28;20093;-61
2021/06/14 05:56:21;;;;;;;16.10;5.25;;;19.20;68.80;;;;;;5093021;28;20020;-63
2021/06/14 05:58:46;;;;;;;19.13;4.57;;;19.30;68.90;;;;;;5094366;28;20686;-62
2021/06/14 06:01:12;;;;;;;12.95;5.30;;;19.30;68.90;;;;;;5092565;28;20028;-62
2021/06/14 06:03:37;;;;;;;10.63;4.40;;;19.30;68.90;;;;;;5094549;28;20024;-62
2021/06/14 06:06:04;;;;;;;19.35;5.22;;;19.30;68.80;;;;;;5094483;28;20157;-62
2021/06/14 06:08:29;;;;;;;12.38;5.47;;;19.40;69.40;;;;;;5091400;28;20039;-62
2021/06/14 06:10:55;;;;;;;11.38;4.78;;;19.40;69.20;;;;;;5093116;28;20040;-62
2021/06/14 06:13:21;;;;;;;19.25;4.72;;;19.40;69.00;;;;;;5092177;28;20039;-62
2021/06/14 06:15:46;;;;;;;10.25;4.70;;;19.50;68.70;;;;;;5094410;28;20063;-62
2021/06/14 06:18:12;;;;;;;8.50;3.55;;;19.40;68.50;;;;;;5095063;28;20028;-62
2021/06/14 06:20:38;;;;;;;12.90;4.95;;;19.50;68.20;;;;;;5095523;28;20069;-62
2021/06/14 06:23:04;;;;;;;10.32;3.33;;;19.50;68.50;;;;;;5093882;28;20459;-62
2021/06/14 06:25:30;;;;;;;12.85;3.72;;;19.50;67.70;;;;;;5093908;28;20032;-62
2021/06/14 06:27:56;;;;;;;17.65;3.95;;;19.60;67.60;;;;;;5094419;28;20470;-62
2021/06/14 06:30:25;;;;;;;7.97;2.42;;;19.50;67.50;;;;;;5094019;28;20039;-62
2021/06/14 06:32:51;;;;;;;10.30;3.45;;;19.60;67.40;;;;;;5093849;28;20032;-62
2021/06/14 06:35:17;;;;;;;22.52;4.78;;;19.60;67.30;;;;;;5092344;28;20024;-62
2021/06/14 06:37:44;;;;;;;6.45;3.03;;;19.60;67.50;;;;;;5093532;28;20464;-62
2021/06/14 06:40:10;;;;;;;13.60;3.20;;;19.60;67.00;;;;;;5090179;28;20429;-62
2021/06/14 06:42:37;;;;;;;18.38;3.75;;;19.60;67.10;;;;;;5092089;28;20052;-62
2021/06/14 06:45:08;;;;;;;6.45;2.30;;;19.60;67.20;;;;;;5092916;28;20032;-62
2021/06/14 06:47:34;;;;;;;9.82;2.10;;;19.70;67.10;;;;;;5094579;28;20042;-62
2021/06/14 06:49:59;;;;;;;11.70;3.47;;;19.70;66.70;;;;;;5093314;28;20036;-62
2021/06/14 06:52:25;;;;;;;10.15;3.30;;;19.70;66.80;;;;;;5072313;28;20069;-62
2021/06/14 06:54:51;;;;;;;9.63;4.43;;;19.70;66.70;;;;;;5094965;28;20380;-62
2021/06/14 06:57:17;;;;;;;7.20;2.17;;;19.80;66.90;;;;;;5092343;28;20028;-62
2021/06/14 06:59:43;;;;;;;9.95;3.90;;;19.80;66.50;;;;;;5076494;28;20044;-62
2021/06/14 07:02:12;;;;;;;4.47;1.95;;;19.80;66.40;;;;;;5094392;28;20113;-62
2021/06/14 07:04:38;;;;;;;13.93;3.67;;;19.80;66.30;;;;;;5091894;28;20028;-62
2021/06/14 07:07:05;;;;;;;8.73;3.17;;;19.90;66.50;;;;;;5091753;28;20028;-61
2021/06/14 07:09:31;;;;;;;8.02;2.45;;;19.90;66.30;;;;;;5094278;28;20388;-61
2021/06/14 07:11:57;;;;;;;11.40;3.42;;;19.90;66.10;;;;;;5091249;28;20081;-62
2021/06/14 07:14:23;;;;;;;12.43;2.95;;;19.90;66.00;;;;;;5093610;28;20119;-61
2021/06/14 07:16:49;;;;;;;11.25;3.25;;;19.90;66.00;;;;;;5091773;28;20344;-62
2021/06/14 07:19:15;;;;;;;8.35;3.72;;;20.00;65.90;;;;;;5092669;28;20472;-62
2021/06/14 07:21:41;;;;;;;7.40;2.58;;;20.00;65.60;;;;;;5092799;28;20048;-62
2021/06/14 07:24:07;;;;;;;6.07;2.78;;;20.00;65.90;;;;;;5085160;28;20476;-62
2021/06/14 07:26:34;;;;;;;4.72;2.13;;;20.00;65.40;;;;;;5086496;28;20024;-62
2021/06/14 07:29:00;;;;;;;11.30;2.70;;;20.10;65.40;;;;;;5091893;28;20467;-62
2021/06/14 07:31:26;;;;;;;7.40;2.78;;;20.00;65.20;;;;;;5092394;28;20552;-62
2021/06/14 07:33:54;;;;;;;6.60;1.85;;;20.00;65.40;;;;;;5092274;28;20020;-62
2021/06/14 07:36:20;;;;;;;18.38;2.53;;;20.10;65.60;;;;;;5093337;28;20446;-62
2021/06/14 07:38:46;;;;;;;6.80;2.90;;;20.10;65.60;;;;;;5090095;28;20103;-62
2021/06/14 07:41:12;;;;;;;8.98;3.20;;;20.10;65.50;;;;;;5091249;28;20036;-62
2021/06/14 07:43:38;;;;;;;4.78;2.38;;;20.20;65.50;;;;;;5093582;28;20107;-62
2021/06/14 07:46:03;;;;;;;20.48;3.97;;;20.30;65.50;;;;;;5091572;28;20032;-62
2021/06/14 07:48:31;;;;;;;6.97;2.10;;;20.30;65.50;;;;;;5093588;28;20036;-62
2021/06/14 07:50:56;;;;;;;14.07;3.58;;;20.30;65.50;;;;;;5092608;28;20169;-62
2021/06/14 07:53:22;;;;;;;3.08;1.75;;;20.30;65.40;;;;;;5087593;28;20111;-62
2021/06/14 07:55:48;;;;;;;8.45;4.28;;;20.40;65.40;;;;;;5090310;28;20031;-62
2021/06/14 07:58:14;;;;;;;5.68;2.10;;;20.50;65.30;;;;;;5090093;28;20472;-62
2021/06/14 08:00:41;;;;;;;8.27;3.17;;;20.50;65.20;;;;;;5091430;28;20074;-62
2021/06/14 08:03:10;;;;;;;18.52;3.78;;;20.60;64.90;;;;;;5092647;28;20039;-62
2021/06/14 08:05:36;;;;;;;11.68;3.28;;;20.60;64.70;;;;;;5092345;28;20105;-62
2021/06/14 08:08:02;;;;;;;6.28;3.00;;;20.60;64.50;;;;;;5090465;28;20032;-62
2021/06/14 08:10:28;;;;;;;4.60;1.85;;;20.70;64.90;;;;;;5074340;28;20027;-62
2021/06/14 08:12:54;;;;;;;3.60;1.92;;;20.70;64.70;;;;;;5092977;28;20372;-62
2021/06/14 08:15:26;;;;;;;10.57;3.28;;;20.70;64.60;;;;;;5090918;28;20417;-62
2021/06/14 08:17:55;;;;;;;3.55;1.83;;;20.70;64.70;;;;;;5091596;28;20043;-62
2021/06/14 08:20:38;;;;;;;4.45;1.75;;;20.80;64.80;;;;;;5090622;28;20451;-64
2021/06/14 08:25:32;;;;;;;8.90;2.80;;;20.80;64.70;;;;;;5092274;28;20040;-62
2021/06/14 08:27:58;;;;;;;4.47;1.73;;;20.90;64.60;;;;;;5092418;28;20103;-62
2021/06/14 08:30:25;;;;;;;11.95;2.25;;;20.90;64.60;;;;;;5092476;28;20123;-62
2021/06/14 08:32:51;;;;;;;5.93;2.30;;;20.90;64.20;;;;;;5092607;28;20034;-62
2021/06/14 08:35:20;;;;;;;6.97;2.50;;;21.00;63.80;;;;;;5091777;28;20032;-62
2021/06/14 08:37:47;;;;;;;3.00;1.58;;;21.00;63.70;;;;;;5087498;28;20126;-62
2021/06/14 08:40:17;;;;;;;2.47;1.60;;;21.00;63.90;;;;;;5089068;28;20036;-63
2021/06/14 08:42:43;;;;;;;7.80;2.20;;;21.00;63.60;;;;;;5090668;28;20039;-64
2021/06/14 08:45:11;;;;;;;4.43;1.88;;;21.10;63.00;;;;;;5092141;28;20040;-62
2021/06/14 08:47:38;;;;;;;8.63;2.22;;;21.10;63.60;;;;;;5092224;28;20111;-61
2021/06/14 08:50:11;;;;;;;5.10;2.00;;;21.20;63.90;;;;;;5090514;28;20036;-61
2021/06/14 08:52:37;;;;;;;9.63;3.17;;;21.20;63.50;;;;;;5092271;28;20027;-61
2021/06/14 08:55:07;;;;;;;6.65;2.85;;;21.30;63.50;;;;;;5091335;28;20464;-61
2021/06/14 08:57:33;;;;;;;1.77;1.48;;;21.30;64.00;;;;;;5091516;28;20477;-61
2021/06/14 08:59:59;;;;;;;3.45;1.80;;;21.30;63.90;;;;;;5092123;28;20032;-61
2021/06/14 09:02:25;;;;;;;8.07;1.77;;;21.30;64.30;;;;;;5092958;28;20425;-60
2021/06/14 09:04:51;;;;;;;4.20;1.83;;;21.40;63.50;;;;;;5091049;28;20507;-61
2021/06/14 09:07:17;;;;;;;3.28;1.30;;;21.40;63.20;;;;;;5074378;28;20027;-61
2021/06/14 09:09:44;;;;;;;10.32;3.03;;;21.50;63.20;;;;;;5091374;28;20126;-61
2021/06/14 09:12:10;;;;;;;4.40;1.95;;;21.50;63.40;;;;;;5091972;28;20031;-61
2021/06/14 09:14:41;;;;;;;17.40;3.22;;;21.60;63.60;;;;;;5093206;28;20031;-61
2021/06/14 09:17:13;;;;;;;2.78;1.83;;;21.60;63.00;;;;;;5087424;28;20027;-61
2021/06/14 09:19:51;;;;;;;9.57;2.72;;;21.70;63.30;;;;;;5092530;28;20390;-61
2021/06/14 09:22:21;;;;;;;7.60;2.72;;;21.70;63.40;;;;;;5090723;28;20012;-61
2021/06/14 09:25:05;;;;;;;5.35;2.15;;;21.70;63.80;;;;;;5091789;28;20032;-61
2021/06/14 09:27:42;;;;;;;5.60;2.70;;;21.80;63.70;;;;;;5090937;28;20110;-61
2021/06/14 09:30:14;;;;;;;3.47;1.23;;;21.80;63.50;;;;;;5093171;28;20070;-61
2021/06/14 09:33:03;;;;;;;3.60;1.83;;;21.90;63.50;;;;;;5075906;28;20024;-61
2021/06/14 09:35:34;;;;;;;7.18;3.08;;;21.90;63.20;;;;;;5093517;28;20024;-62
2021/06/14 09:38:06;;;;;;;1.77;1.27;;;21.90;62.20;;;;;;5091092;28;20043;-62
2021/06/14 09:40:37;;;;;;;13.85;2.25;;;22.00;62.70;;;;;;5074074;28;20086;-68
2021/06/14 09:43:05;;;;;;;4.93;1.90;;;22.00;62.70;;;;;;5094651;28;20040;-67
2021/06/14 09:45:33;;;;;;;5.55;2.75;;;22.10;63.10;;;;;;5094740;28;20409;-67
2021/06/14 09:47:59;;;;;;;10.90;2.67;;;22.20;63.40;;;;;;5095236;28;20073;-66
2021/06/14 09:50:31;;;;;;;3.05;2.08;;;22.20;64.00;;;;;;5095600;28;20040;-67
2021/06/14 09:53:07;;;;;;;3.70;2.10;;;22.20;63.50;;;;;;5090486;28;20482;-66
2021/06/14 09:55:33;;;;;;;7.72;2.13;;;22.30;63.00;;;;;;5092847;28;20024;-64
2021/06/14 09:58:13;;;;;;;5.00;2.30;;;22.30;62.90;;;;;;5092469;28;20032;-64
2021/06/14 10:00:59;;;;;;;4.82;2.50;;;22.30;62.40;;;;;;5094153;28;20055;-64
2021/06/14 10:03:27;;;;;;;8.60;2.15;;;22.40;62.70;;;;;;5094075;28;20478;-64
2021/06/14 10:05:55;;;;;;;5.72;2.67;;;22.40;62.40;;;;;;5094471;28;20032;-64
2021/06/14 10:08:27;;;;;;;5.70;2.47;;;22.50;62.50;;;;;;5094439;28;20031;-64
2021/06/14 10:11:06;;;;;;;10.13;2.90;;;22.50;62.40;;;;;;5095047;28;20124;-64
2021/06/14 10:13:34;;;;;;;3.85;1.92;;;22.60;62.10;;;;;;5093842;28;20111;-63
2021/06/14 10:16:11;;;;;;;23.40;3.65;;;22.70;62.00;;;;;;5094922;28;20028;-63
2021/06/14 10:18:42;;;;;;;9.35;4.00;;;22.80;61.30;;;;;;5094182;28;20051;-62
2021/06/14 10:21:30;;;;;;;12.90;2.72;;;22.80;61.20;;;;;;5094423;28;20028;-62
2021/06/14 10:24:01;;;;;;;10.07;3.53;;;22.80;61.60;;;;;;5093435;28;20040;-62
2021/06/14 10:26:28;;;;;;;5.88;2.30;;;22.90;61.60;;;;;;5095112;28;20032;-63
2021/06/14 10:28:55;;;;;;;2.50;1.40;;;22.90;61.60;;;;;;5092795;28;20111;-62
2021/06/14 10:31:22;;;;;;;3.30;1.42;;;23.00;61.60;;;;;;5094032;28;20104;-62
2021/06/14 10:33:49;;;;;;;6.60;3.05;;;23.10;61.60;;;;;;5092271;28;20440;-62
2021/06/14 10:36:16;;;;;;;5.18;1.83;;;23.10;60.50;;;;;;5081236;28;20089;-62
2021/06/14 10:38:44;;;;;;;5.35;2.35;;;23.10;61.00;;;;;;5088522;28;20063;-62
2021/06/14 10:41:10;;;;;;;7.10;2.33;;;23.10;61.30;;;;;;5090458;28;20290;-62
2021/06/14 10:43:36;;;;;;;11.60;1.80;;;23.20;61.60;;;;;;5089389;28;20024;-62
2021/06/14 10:46:02;;;;;;;5.47;2.47;;;23.30;61.90;;;;;;5092263;28;20391;-62
2021/06/14 10:48:34;;;;;;;3.80;2.42;;;23.30;62.00;;;;;;5091420;28;20023;-62
2021/06/14 10:51:01;;;;;;;8.77;1.92;;;23.40;61.20;;;;;;5093556;28;20036;-62
2021/06/14 10:53:30;;;;;;;6.72;2.15;;;23.40;61.20;;;;;;5094286;28;20518;-62
2021/06/14 10:56:01;;;;;;;1.33;1.00;;;23.40;61.10;;;;;;5092113;28;20099;-62
2021/06/14 10:58:29;;;;;;;3.95;1.95;;;23.50;61.70;;;;;;5093374;28;20403;-62
2021/06/14 11:01:16;;;;;;;9.52;3.65;;;23.60;61.20;;;;;;5094122;28;20032;-62
2021/06/14 11:03:47;;;;;;;2.78;1.48;;;23.60;60.40;;;;;;5080248;28;20463;-62
2021/06/14 11:06:21;;;;;;;2.35;1.42;;;23.70;60.80;;;;;;5079138;28;20320;-62
2021/06/14 11:09:07;;;;;;;6.03;2.25;;;23.70;60.90;;;;;;5081123;28;20059;-62
2021/06/14 11:12:01;;;;;;;7.22;1.90;;;23.70;61.00;;;;;;5093318;28;20034;-62
2021/06/14 11:14:47;;;;;;;9.73;3.30;;;23.80;60.70;;;;;;5076555;28;20482;-62
2021/06/14 11:17:25;;;;;;;7.22;1.92;;;23.90;59.70;;;;;;5078131;28;20052;-62
2021/06/14 11:20:11;;;;;;;2.80;2.00;;;23.90;60.50;;;;;;5094354;28;20032;-62
2021/06/14 11:22:38;;;;;;;2.53;1.80;;;23.90;59.80;;;;;;5082337;28;20030;-62
2021/06/14 11:25:20;;;;;;;3.50;2.08;;;24.00;59.80;;;;;;5092600;28;20379;-62
2021/06/14 11:27:48;;;;;;;1.77;1.20;;;24.00;59.50;;;;;;5083156;28;20032;-63
2021/06/14 11:30:22;;;;;;;7.05;3.22;;;24.10;59.30;;;;;;5090558;28;20031;-62
2021/06/14 11:32:48;;;;;;;3.45;1.80;;;24.00;59.70;;;;;;5090950;28;20046;-62
2021/06/14 11:35:15;;;;;;;3.28;1.52;;;24.10;59.30;;;;;;5090270;28;20150;-61
2021/06/14 11:37:44;;;;;;;8.23;3.55;;;24.20;59.60;;;;;;5090729;28;20474;-61
2021/06/14 11:40:13;;;;;;;7.57;2.63;;;24.30;59.60;;;;;;5090692;28;20490;-61
2021/06/14 11:42:49;;;;;;;12.48;3.08;;;24.30;59.70;;;;;;5091637;28;20064;-61
2021/06/14 11:45:29;;;;;;;5.55;2.22;;;24.30;59.10;;;;;;5090430;28;20043;-61
2021/06/14 11:47:57;;;;;;;7.68;2.97;;;24.40;59.40;;;;;;5092202;28;20043;-61
2021/06/14 11:50:29;;;;;;;8.13;3.20;;;24.40;59.50;;;;;;5093027;28;20090;-61
2021/06/14 11:52:57;;;;;;;6.22;2.15;;;24.50;59.00;;;;;;5090288;28;20028;-61
2021/06/14 11:55:25;;;;;;;7.25;2.35;;;24.60;59.80;;;;;;5093003;28;20028;-61
2021/06/14 11:57:59;;;;;;;5.63;1.42;;;24.70;60.10;;;;;;5089827;28;20479;-62
2021/06/14 12:00:31;;;;;;;4.07;1.92;;;24.70;60.00;;;;;;5092606;28;20051;-64
2021/06/14 12:02:58;;;;;;;9.38;2.58;;;24.70;59.50;;;;;;5090300;28;20024;-61
2021/06/14 12:05:35;;;;;;;2.22;1.42;;;24.80;59.20;;;;;;5072958;28;20027;-61
2021/06/14 12:08:05;;;;;;;2.63;1.38;;;24.80;59.90;;;;;;5089859;28;20082;-61
2021/06/14 12:10:31;;;;;;;8.38;2.67;;;24.90;59.80;;;;;;5090048;28;20395;-61
2021/06/14 12:13:21;;;;;;;3.10;1.63;;;24.90;59.40;;;;;;5085761;28;20036;-63
2021/06/14 12:15:50;;;;;;;4.55;2.58;;;25.00;59.60;;;;;;5089553;28;20066;-63
2021/06/14 12:18:18;;;;;;;4.82;2.78;;;25.10;59.40;;;;;;5091671;28;20085;-62
2021/06/14 12:20:48;;;;;;;13.00;4.18;;;25.10;59.60;;;;;;5088736;28;20023;-62
2021/06/14 12:23:16;;;;;;;3.20;2.13;;;25.10;59.50;;;;;;5092430;28;20174;-62
2021/06/14 12:25:45;;;;;;;15.70;5.63;;;25.20;60.00;;;;;;5090210;28;20054;-62
2021/06/14 12:28:14;;;;;;;4.82;2.60;;;25.20;59.70;;;;;;5090232;28;20494;-62
2021/06/14 12:30:45;;;;;;;2.97;1.80;;;25.30;60.00;;;;;;5090140;28;20048;-62
2021/06/14 12:33:11;;;;;;;4.55;2.50;;;25.30;59.60;;;;;;5083896;28;20107;-64
2021/06/14 12:35:38;;;;;;;3.90;2.35;;;25.40;59.60;;;;;;5091238;28;20095;-64
2021/06/14 12:38:11;;;;;;;5.13;2.88;;;25.40;59.80;;;;;;5090172;28;20065;-63
2021/06/14 12:40:38;;;;;;;;;;;25.50;60.30;;;;;;5090805;28;20119;-63
2021/06/14 12:43:06;;;;;;;3.63;2.60;;;25.50;59.80;;;;;;5089385;28;19923;-66
2021/06/14 12:45:34;;;;;;;4.47;2.47;;;25.60;59.70;;;;;;5079898;28;20106;-66
2021/06/14 12:48:04;;;;;;;4.97;2.45;;;25.60;59.80;;;;;;5086031;28;20062;-66
2021/06/14 12:50:34;;;;;;;4.57;1.92;;;25.70;59.80;;;;;;5087914;28;20079;-66
2021/06/14 12:53:02;;;;;;;6.45;2.72;;;25.70;59.30;;;;;;5074567;28;20028;-66
2021/06/14 12:55:30;;;;;;;11.98;3.78;;;25.70;59.10;;;;;;5088199;28;20485;-66
2021/06/14 12:57:59;;;;;;;6.88;2.65;;;25.80;59.20;;;;;;5084630;28;20038;-65